createdAt,value
2022-10-18T00:00:54.373Z,8.70
2022-10-18T00:03:22.374Z,8.83
2022-10-18T00:05:50.707Z,8.83
2022-10-18T00:08:19.353Z,8.97
2022-10-18T00:10:47.500Z,8.23
2022-10-18T00:13:16.674Z,9.10
2022-10-18T00:15:50.002Z,9.13
2022-10-18T00:18:18.050Z,10.17
2022-10-18T00:20:45.919Z,9.40
2022-10-18T00:23:13.781Z,9.50
2022-10-18T00:25:41.574Z,10.70
2022-10-18T00:28:09.322Z,10.63
2022-10-18T00:30:38.522Z,10.77
2022-10-18T00:33:06.452Z,10.37
2022-10-18T00:35:36.083Z,11.23
2022-10-18T00:38:03.891Z,9.00
2022-10-18T00:40:31.736Z,10.07
2022-10-18T00:42:59.519Z,9.57
2022-10-18T00:45:27.858Z,10.60
2022-10-18T00:47:59.696Z,11.10
2022-10-18T00:50:30.944Z,11.73
2022-10-18T00:53:03.324Z,11.30
2022-10-18T00:55:33.944Z,11.00
2022-10-18T00:58:02.690Z,11.13
2022-10-18T01:00:30.688Z,12.43
2022-10-18T01:03:00.100Z,11.40
2022-10-18T01:05:28.258Z,11.40
2022-10-18T01:08:16.825Z,11.23
2022-10-18T01:10:52.606Z,10.77
2022-10-18T01:13:33.226Z,8.53
2022-10-18T01:16:10.632Z,8.68
2022-10-18T01:18:47.994Z,8.50
2022-10-18T01:21:32.663Z,8.00
2022-10-18T01:24:19.170Z,8.20
2022-10-18T01:27:02.064Z,6.17
2022-10-18T01:29:39.619Z,6.27
2022-10-18T01:32:13.485Z,5.43
2022-10-18T01:34:45.006Z,4.93
2022-10-18T01:37:17.988Z,4.50
2022-10-18T01:39:48.088Z,5.10
2022-10-18T01:42:19.926Z,5.20
2022-10-18T01:44:49.365Z,4.57
2022-10-18T01:47:20.158Z,4.90
2022-10-18T01:49:48.072Z,6.63
2022-10-18T01:52:17.322Z,5.67
2022-10-18T01:54:48.309Z,5.20
2022-10-18T01:57:25.464Z,5.00
2022-10-18T01:59:59.855Z,4.80
2022-10-18T02:02:42.712Z,5.90
2022-10-18T02:05:19.391Z,5.17
2022-10-18T02:08:00.418Z,6.00
2022-10-18T02:10:44.370Z,5.33
2022-10-18T02:13:14.375Z,4.73
2022-10-18T02:15:46.951Z,5.10
2022-10-18T02:18:19.481Z,6.20
2022-10-18T02:20:49.338Z,4.70
2022-10-18T02:23:22.395Z,5.20
2022-10-18T02:25:50.293Z,5.50
2022-10-18T02:28:18.306Z,5.80
2022-10-18T02:30:52.716Z,6.47
2022-10-18T02:33:29.018Z,5.93
2022-10-18T02:36:03.607Z,5.70
2022-10-18T02:38:33.298Z,6.43
2022-10-18T02:41:01.073Z,6.03
2022-10-18T02:43:28.830Z,6.00
2022-10-18T02:45:56.655Z,6.60
2022-10-18T02:48:25.880Z,5.90
2022-10-18T02:50:53.664Z,5.47
2022-10-18T02:53:21.506Z,6.50
2022-10-18T02:55:49.335Z,6.50
2022-10-18T02:58:17.139Z,6.97
2022-10-18T03:00:44.954Z,7.60
2022-10-18T03:03:12.727Z,7.00
2022-10-18T03:05:41.853Z,7.63
2022-10-18T03:08:09.666Z,7.07
2022-10-18T03:10:37.441Z,7.57
2022-10-18T03:13:05.232Z,7.20
2022-10-18T03:15:32.991Z,7.13
2022-10-18T03:18:00.781Z,6.50
2022-10-18T03:20:28.559Z,8.35
2022-10-18T03:22:57.731Z,7.30
2022-10-18T03:25:25.623Z,7.63
2022-10-18T03:27:53.529Z,7.87
2022-10-18T03:30:21.335Z,7.40
2022-10-18T03:32:49.086Z,7.23
2022-10-18T03:35:17.078Z,7.57
2022-10-18T03:37:44.867Z,6.77
2022-10-18T03:40:14.249Z,7.80
2022-10-18T03:42:42.011Z,8.00
2022-10-18T03:45:10.638Z,7.97
2022-10-18T03:47:38.448Z,7.80
2022-10-18T03:50:06.900Z,7.60
2022-10-18T03:52:34.826Z,6.17
2022-10-18T03:55:02.805Z,7.97
2022-10-18T03:57:31.974Z,7.20
2022-10-18T03:59:59.845Z,9.30
2022-10-18T04:02:27.732Z,9.70
2022-10-18T04:04:55.506Z,9.07
2022-10-18T04:07:23.263Z,9.17
2022-10-18T04:09:51.108Z,8.90
2022-10-18T04:12:18.924Z,9.70
2022-10-18T04:14:48.121Z,9.37
2022-10-18T04:17:16.123Z,9.23
2022-10-18T04:19:43.914Z,9.90
2022-10-18T04:22:12.835Z,9.73
2022-10-18T04:24:40.600Z,8.67
2022-10-18T04:27:09.002Z,8.40
2022-10-18T04:29:36.799Z,8.10
2022-10-18T04:32:06.204Z,9.23
2022-10-18T04:34:34.038Z,7.90
2022-10-18T04:37:01.818Z,8.40
2022-10-18T04:39:29.807Z,8.10
2022-10-18T04:41:57.671Z,8.37
2022-10-18T04:44:25.434Z,8.50
2022-10-18T04:46:53.203Z,7.87
2022-10-18T04:49:22.409Z,7.53
2022-10-18T04:51:50.172Z,7.37
2022-10-18T04:54:18.129Z,8.33
2022-10-18T04:56:45.909Z,7.63
2022-10-18T04:59:13.723Z,7.80
2022-10-18T05:01:41.545Z,8.03
2022-10-18T05:04:21.331Z,6.70
2022-10-18T05:06:50.520Z,7.40
2022-10-18T05:09:18.822Z,6.30
2022-10-18T05:11:46.594Z,6.30
2022-10-18T05:14:14.391Z,7.10
2022-10-18T05:16:42.155Z,6.03
2022-10-18T05:19:10.850Z,7.80
2022-10-18T05:21:38.625Z,8.30
2022-10-18T05:24:08.034Z,7.30
2022-10-18T05:26:35.854Z,7.87
2022-10-18T05:29:04.245Z,6.53
2022-10-18T05:31:32.150Z,5.57
2022-10-18T05:34:01.500Z,4.90
2022-10-18T05:36:29.295Z,5.90
2022-10-18T05:39:00.867Z,6.30
2022-10-18T05:41:33.577Z,5.30
2022-10-18T05:44:04.560Z,6.10
2022-10-18T05:46:32.775Z,6.60
2022-10-18T05:49:00.623Z,7.07
2022-10-18T05:51:28.416Z,6.00
2022-10-18T05:53:56.207Z,7.30
2022-10-18T05:56:23.991Z,6.70
2022-10-18T05:58:53.447Z,7.07
2022-10-18T06:01:21.530Z,7.50
2022-10-18T06:03:49.490Z,6.47
2022-10-18T06:06:17.513Z,6.73
2022-10-18T06:08:45.588Z,6.37
2022-10-18T06:11:15.403Z,6.53
2022-10-18T06:13:43.780Z,6.60
2022-10-18T06:16:14.002Z,6.03
2022-10-18T06:18:41.905Z,7.67
2022-10-18T06:21:10.242Z,6.23
2022-10-18T06:23:38.157Z,6.60
2022-10-18T06:26:08.159Z,6.57
2022-10-18T06:28:37.257Z,6.13
2022-10-18T06:31:06.376Z,6.60
2022-10-18T06:33:36.839Z,5.93
2022-10-18T06:36:08.054Z,5.80
2022-10-18T06:38:36.191Z,5.67
2022-10-18T06:41:04.924Z,7.13
2022-10-18T06:43:32.828Z,5.70
2022-10-18T06:46:02.241Z,6.30
2022-10-18T06:48:31.676Z,6.70
2022-10-18T06:51:03.026Z,6.50
2022-10-18T06:53:32.373Z,8.33
2022-10-18T06:56:00.948Z,6.60
2022-10-18T06:58:29.075Z,7.47
2022-10-18T07:00:57.097Z,7.00
2022-10-18T07:03:26.036Z,7.23
2022-10-18T07:05:53.869Z,6.73
2022-10-18T07:08:22.963Z,7.10
2022-10-18T07:10:54.499Z,6.00
2022-10-18T07:13:37.838Z,7.33
2022-10-18T07:16:10.569Z,5.80
2022-10-18T07:18:42.056Z,7.30
2022-10-18T07:21:11.212Z,6.17
2022-10-18T07:23:47.432Z,6.80
2022-10-18T07:26:17.376Z,5.80
2022-10-18T07:28:47.675Z,6.90
2022-10-18T07:31:15.568Z,6.50
2022-10-18T07:33:43.796Z,6.20
2022-10-18T07:36:13.082Z,5.70
2022-10-18T07:38:42.497Z,5.30
2022-10-18T07:41:12.950Z,5.60
2022-10-18T07:43:43.852Z,5.50
2022-10-18T07:46:11.636Z,5.37
2022-10-18T07:48:39.539Z,5.90
2022-10-18T07:51:07.875Z,6.57
2022-10-18T07:53:35.877Z,6.00
2022-10-18T07:56:09.382Z,6.67
2022-10-18T07:58:37.801Z,6.33
2022-10-18T08:01:07.277Z,5.83
2022-10-18T08:03:35.370Z,6.30
2022-10-18T08:06:04.322Z,5.47
2022-10-18T08:08:32.652Z,6.37
2022-10-18T08:11:05.814Z,5.30
2022-10-18T08:13:33.773Z,5.30
2022-10-18T08:16:02.784Z,5.40
2022-10-18T08:18:31.347Z,5.47
2022-10-18T08:21:01.633Z,5.13
2022-10-18T08:23:29.643Z,5.50
2022-10-18T08:25:57.613Z,5.43
2022-10-18T08:28:26.849Z,5.03
2022-10-18T08:30:54.668Z,6.17
2022-10-18T08:33:22.435Z,5.60
2022-10-18T08:35:56.523Z,6.70
2022-10-18T08:38:24.347Z,5.40
2022-10-18T08:40:52.743Z,6.30
2022-10-18T08:43:31.466Z,6.00
2022-10-18T08:46:00.364Z,5.40
2022-10-18T08:48:34.477Z,5.00
2022-10-18T08:51:03.945Z,4.43
2022-10-18T08:53:40.096Z,6.00
2022-10-18T08:56:14.757Z,6.17
2022-10-18T08:58:44.988Z,5.90
2022-10-18T09:01:28.067Z,6.97
2022-10-18T09:04:10.513Z,7.67
2022-10-18T09:06:49.194Z,6.60
2022-10-18T09:09:31.402Z,6.50
2022-10-18T09:12:10.001Z,6.40
2022-10-18T09:15:04.852Z,6.43
2022-10-18T09:17:45.586Z,6.03
2022-10-18T09:20:23.156Z,7.23
2022-10-18T09:22:56.574Z,7.90
2022-10-18T09:25:26.961Z,7.20
2022-10-18T09:27:57.839Z,7.33
2022-10-18T09:30:36.657Z,6.23
2022-10-18T09:33:20.910Z,6.37
2022-10-18T09:35:53.799Z,6.33
2022-10-18T09:38:27.260Z,7.90
2022-10-18T09:40:59.466Z,8.47
2022-10-18T09:43:39.180Z,8.93
2022-10-18T09:46:09.396Z,8.00
2022-10-18T09:48:43.977Z,7.80
2022-10-18T09:51:17.692Z,8.27
2022-10-18T09:53:59.730Z,7.40
2022-10-18T09:56:31.478Z,7.60
2022-10-18T09:58:59.356Z,8.40
2022-10-18T10:01:31.824Z,8.00
2022-10-18T10:03:59.614Z,7.30
2022-10-18T10:06:29.430Z,7.77
2022-10-18T10:09:02.594Z,7.87
2022-10-18T10:11:34.045Z,7.40
2022-10-18T10:16:52.377Z,7.20
2022-10-18T10:19:24.312Z,7.33
2022-10-18T10:21:56.928Z,6.90
2022-10-18T10:24:31.241Z,7.10
2022-10-18T10:27:07.618Z,7.00
2022-10-18T10:29:56.459Z,6.43
2022-10-18T10:32:29.581Z,6.60
2022-10-18T10:34:58.090Z,6.37
2022-10-18T10:37:34.450Z,6.60
2022-10-18T10:40:28.354Z,8.57
2022-10-18T10:43:12.896Z,6.77
2022-10-18T10:46:01.462Z,5.60
2022-10-18T10:48:33.683Z,6.40
2022-10-18T10:51:06.698Z,3.90
2022-10-18T10:53:45.032Z,5.43
2022-10-18T10:56:24.371Z,5.17
2022-10-18T10:58:53.258Z,4.50
2022-10-18T11:01:27.773Z,4.03
2022-10-18T11:03:59.189Z,5.37
2022-10-18T11:06:49.937Z,4.20
2022-10-18T11:09:28.407Z,4.20
2022-10-18T11:12:15.397Z,3.90
2022-10-18T11:14:46.784Z,3.70
2022-10-18T11:17:22.724Z,4.63
2022-10-18T11:20:17.724Z,4.40
2022-10-18T11:22:54.596Z,3.33
2022-10-18T11:25:29.410Z,3.80
2022-10-18T11:28:03.052Z,3.57
2022-10-18T11:30:44.628Z,3.70
2022-10-18T11:33:50.136Z,3.17
2022-10-18T11:36:21.808Z,3.43
2022-10-18T11:38:57.054Z,3.70
2022-10-18T11:41:40.568Z,3.90
2022-10-18T11:44:20.206Z,3.57
2022-10-18T11:47:00.918Z,4.00
2022-10-18T11:49:43.659Z,3.97
2022-10-18T11:52:20.819Z,3.50
2022-10-18T11:55:14.529Z,4.17
2022-10-18T11:57:51.102Z,3.73
2022-10-18T12:00:40.276Z,3.97
2022-10-18T12:03:27.948Z,4.13
2022-10-18T12:05:58.944Z,4.77
2022-10-18T12:08:34.519Z,4.27
2022-10-18T12:11:09.046Z,5.13
2022-10-18T12:13:41.952Z,4.67
2022-10-18T12:16:11.787Z,4.70
2022-10-18T12:18:50.668Z,4.77
2022-10-18T12:21:25.526Z,4.13
2022-10-18T12:23:59.437Z,4.00
2022-10-18T12:26:29.186Z,4.00
2022-10-18T12:29:12.002Z,4.57
2022-10-18T12:31:43.093Z,4.87
2022-10-18T12:34:27.006Z,4.87
2022-10-18T12:37:08.434Z,5.57
2022-10-18T12:39:50.454Z,6.20
2022-10-18T12:42:32.847Z,6.30
2022-10-18T12:45:05.738Z,6.33
2022-10-18T12:47:34.433Z,7.13
2022-10-18T12:50:06.247Z,6.10
2022-10-18T12:52:36.928Z,7.87
2022-10-18T12:55:31.956Z,7.50
2022-10-18T12:58:07.080Z,6.77
2022-10-18T13:01:05.050Z,7.00
2022-10-18T13:03:53.191Z,6.10
2022-10-18T13:06:21.896Z,6.50
2022-10-18T13:09:04.059Z,6.57
2022-10-18T13:11:36.995Z,6.80
2022-10-18T13:14:49.406Z,5.53
2022-10-18T13:17:35.833Z,5.70
2022-10-18T13:20:27.600Z,6.60
2022-10-18T13:23:12.014Z,5.83
2022-10-18T13:25:55.341Z,6.17
2022-10-18T13:28:32.023Z,6.60
2022-10-18T13:31:09.278Z,6.80
2022-10-18T13:33:39.075Z,6.00
2022-10-18T13:36:22.990Z,6.17
2022-10-18T13:39:03.034Z,6.20
2022-10-18T13:41:35.335Z,7.20
2022-10-18T13:44:28.311Z,6.13
2022-10-18T13:47:33.000Z,7.20
2022-10-18T13:53:30.271Z,7.07
2022-10-18T13:56:27.278Z,6.50
2022-10-18T13:59:14.795Z,7.50
2022-10-18T14:01:54.875Z,6.50
2022-10-18T14:04:47.997Z,7.67
2022-10-18T14:07:19.084Z,6.80
2022-10-18T14:09:55.006Z,7.00
2022-10-18T14:12:29.757Z,7.47
2022-10-18T14:15:05.570Z,7.27
2022-10-18T14:17:42.284Z,7.30
2022-10-18T14:20:28.584Z,6.73
2022-10-18T14:23:05.029Z,8.43
2022-10-18T14:25:36.494Z,7.03
2022-10-18T14:28:15.435Z,7.03
2022-10-18T14:30:57.563Z,7.70
2022-10-18T14:33:28.920Z,6.23
2022-10-18T14:36:10.362Z,7.90
2022-10-18T14:38:49.720Z,7.20
2022-10-18T14:41:21.340Z,7.00
2022-10-18T14:43:49.819Z,8.20
2022-10-18T14:46:21.983Z,6.53
2022-10-18T14:48:56.137Z,7.80
2022-10-18T14:51:24.478Z,7.60
2022-10-18T14:53:53.457Z,7.23
2022-10-18T14:56:27.777Z,7.50
2022-10-18T14:58:56.997Z,6.57
2022-10-18T15:01:27.427Z,5.10
2022-10-18T15:03:59.499Z,4.30
2022-10-18T15:06:28.095Z,4.10
2022-10-18T15:08:58.136Z,4.47
2022-10-18T15:11:27.402Z,4.50
2022-10-18T15:13:57.999Z,4.40
2022-10-18T15:16:28.710Z,5.40
2022-10-18T15:19:04.407Z,4.80
2022-10-18T15:21:33.369Z,5.00
2022-10-18T15:24:21.216Z,3.70
2022-10-18T15:26:52.795Z,5.00
2022-10-18T15:29:21.901Z,5.07
2022-10-18T15:31:50.997Z,5.63
2022-10-18T15:34:24.180Z,5.53
2022-10-18T15:36:54.644Z,5.03
2022-10-18T15:39:25.670Z,5.40
2022-10-18T15:41:55.814Z,5.03
2022-10-18T15:44:27.808Z,4.47
2022-10-18T15:47:10.030Z,4.57
2022-10-18T15:49:58.187Z,5.47
2022-10-18T15:52:37.532Z,3.30
2022-10-18T15:55:39.588Z,3.97
2022-10-18T15:58:13.298Z,4.30
2022-10-18T16:00:42.989Z,5.63
2022-10-18T16:03:11.183Z,4.60
2022-10-18T16:05:41.049Z,5.23
2022-10-18T16:08:19.752Z,5.30
2022-10-18T16:10:47.604Z,6.10
2022-10-18T16:13:15.525Z,5.60
2022-10-18T16:15:43.446Z,5.03
2022-10-18T16:18:16.590Z,5.20
2022-10-18T16:20:46.074Z,4.63
2022-10-18T16:23:22.378Z,4.50
2022-10-18T16:25:52.727Z,5.23
2022-10-18T16:28:22.765Z,5.30
2022-10-18T16:30:55.815Z,4.27
2022-10-18T16:33:24.238Z,4.37
2022-10-18T16:35:54.158Z,5.47
2022-10-18T16:38:31.116Z,4.23
2022-10-18T16:41:03.754Z,4.40
2022-10-18T16:43:31.658Z,4.70
2022-10-18T16:45:59.732Z,4.60
2022-10-18T16:48:27.907Z,5.10
2022-10-18T16:50:57.577Z,5.07
2022-10-18T16:53:26.212Z,5.00
2022-10-18T16:55:56.916Z,4.57
2022-10-18T16:58:25.028Z,4.40
2022-10-18T17:00:52.895Z,5.90
2022-10-18T17:03:21.050Z,3.90
2022-10-18T17:05:49.118Z,4.77
2022-10-18T17:08:22.914Z,4.13
2022-10-18T17:10:53.413Z,4.40
2022-10-18T17:13:24.753Z,5.93
2022-10-18T17:15:52.950Z,5.17
2022-10-18T17:18:24.627Z,4.87
2022-10-18T17:20:52.524Z,5.23
2022-10-18T17:23:21.697Z,4.53
2022-10-18T17:26:04.839Z,5.10
2022-10-18T17:28:33.196Z,5.13
2022-10-18T17:31:01.027Z,4.63
2022-10-18T17:33:28.799Z,4.23
2022-10-18T17:35:56.600Z,5.03
2022-10-18T17:38:25.877Z,4.60
2022-10-18T17:40:54.411Z,5.80
2022-10-18T17:43:22.236Z,5.10
2022-10-18T17:45:53.056Z,5.10
2022-10-18T17:48:21.260Z,4.57
2022-10-18T17:50:49.070Z,5.50
2022-10-18T17:53:22.311Z,5.73
2022-10-18T17:55:51.472Z,5.80
2022-10-18T17:58:19.235Z,4.90
2022-10-18T18:00:47.052Z,5.33
2022-10-18T18:03:14.841Z,5.20
2022-10-18T18:05:42.726Z,5.43
2022-10-18T18:08:10.525Z,5.13
2022-10-18T18:10:38.616Z,6.30
2022-10-18T18:13:07.783Z,5.37
2022-10-18T18:15:35.582Z,6.30
2022-10-18T18:18:03.354Z,4.90
2022-10-18T18:20:31.273Z,4.83
2022-10-18T18:22:59.013Z,5.17
2022-10-18T18:25:26.787Z,5.53
2022-10-18T18:27:55.631Z,5.33
2022-10-18T18:30:24.902Z,5.00
2022-10-18T18:32:52.687Z,5.43
2022-10-18T18:35:20.503Z,6.50
2022-10-18T18:37:51.107Z,6.20
2022-10-18T18:40:19.087Z,5.63
2022-10-18T18:43:01.419Z,5.20
2022-10-18T18:45:36.024Z,4.80
2022-10-18T18:48:03.840Z,5.13
2022-10-18T18:50:32.986Z,4.60
2022-10-18T18:53:00.756Z,5.23
2022-10-18T18:55:28.539Z,4.93
2022-10-18T18:57:56.319Z,4.77
2022-10-18T19:00:24.085Z,5.13
2022-10-18T19:02:53.221Z,4.33
2022-10-18T19:05:21.056Z,4.67
2022-10-18T19:07:48.844Z,4.27
2022-10-18T19:10:16.748Z,4.50
2022-10-18T19:12:44.524Z,4.37
2022-10-18T19:15:12.395Z,4.77
2022-10-18T19:17:40.259Z,4.13
2022-10-18T19:20:12.175Z,3.87
2022-10-18T19:22:40.414Z,4.93
2022-10-18T19:25:09.257Z,4.87
2022-10-18T19:27:38.087Z,4.37
2022-10-18T19:30:08.898Z,4.33
2022-10-18T19:32:36.713Z,3.50
2022-10-18T19:35:04.739Z,4.27
2022-10-18T19:37:34.057Z,4.13
2022-10-18T19:40:02.033Z,4.13
2022-10-18T19:42:31.407Z,4.70
2022-10-18T19:44:59.492Z,3.53
2022-10-18T19:47:27.310Z,3.40
2022-10-18T19:49:55.389Z,3.57
2022-10-18T19:52:23.226Z,3.60
2022-10-18T19:54:52.429Z,3.20
2022-10-18T19:57:20.250Z,4.10
2022-10-18T19:59:48.027Z,4.10
2022-10-18T20:02:15.911Z,4.10
2022-10-18T20:04:43.736Z,3.80
2022-10-18T20:07:11.632Z,4.23
2022-10-18T20:09:39.817Z,3.90
2022-10-18T20:12:08.926Z,3.60
2022-10-18T20:14:36.810Z,4.10
2022-10-18T20:17:05.737Z,3.63
2022-10-18T20:19:33.732Z,4.70
2022-10-18T20:22:01.494Z,3.67
2022-10-18T20:24:29.400Z,3.80
2022-10-18T20:26:57.153Z,3.67
2022-10-18T20:29:26.440Z,3.60
2022-10-18T20:31:55.619Z,3.43
2022-10-18T20:34:25.881Z,3.40
2022-10-18T20:36:55.207Z,3.03
2022-10-18T20:39:23.248Z,3.47
2022-10-18T20:41:51.009Z,3.70
2022-10-18T20:44:22.335Z,3.20
2022-10-18T20:46:51.419Z,3.50
2022-10-18T20:49:19.336Z,2.70
2022-10-18T20:51:47.127Z,4.10
2022-10-18T20:54:15.066Z,3.40
2022-10-18T20:56:42.903Z,3.27
2022-10-18T20:59:11.448Z,3.07
2022-10-18T21:01:40.555Z,3.03
2022-10-18T21:04:10.907Z,4.20
2022-10-18T21:06:41.716Z,4.20
2022-10-18T21:09:12.467Z,3.83
2022-10-18T21:11:41.849Z,2.83
2022-10-18T21:14:12.824Z,3.17
2022-10-18T21:16:41.094Z,3.33
2022-10-18T21:19:13.674Z,3.97
2022-10-18T21:21:42.545Z,4.47
2022-10-18T21:24:10.737Z,3.60
2022-10-18T21:26:38.638Z,3.80
2022-10-18T21:29:06.838Z,3.50
2022-10-18T21:31:36.253Z,3.60
2022-10-18T21:34:06.475Z,3.50
2022-10-18T21:36:37.279Z,3.20
2022-10-18T21:39:06.725Z,3.20
2022-10-18T21:41:36.264Z,4.80
2022-10-18T21:44:08.278Z,2.80
2022-10-18T21:46:39.968Z,3.10
2022-10-18T21:49:08.603Z,3.37
2022-10-18T21:51:38.171Z,3.50
2022-10-18T21:54:07.770Z,3.30
2022-10-18T21:56:36.482Z,4.03
2022-10-18T21:59:05.973Z,3.40
2022-10-18T22:01:35.920Z,3.13
2022-10-18T22:04:05.932Z,3.27
2022-10-18T22:06:36.931Z,3.10
2022-10-18T22:09:08.249Z,3.27
2022-10-18T22:11:38.768Z,2.83
2022-10-18T22:14:06.623Z,3.37
2022-10-18T22:16:34.484Z,3.17
2022-10-18T22:19:03.993Z,2.93
2022-10-18T22:21:32.184Z,2.83
2022-10-18T22:24:01.460Z,2.80
2022-10-18T22:26:30.706Z,2.73
2022-10-18T22:29:00.574Z,2.70
2022-10-18T22:31:30.919Z,2.60
2022-10-18T22:34:00.899Z,3.27
2022-10-18T22:36:29.245Z,2.37
2022-10-18T22:38:57.541Z,2.80
2022-10-18T22:41:26.971Z,2.37
2022-10-18T22:43:56.464Z,2.83
2022-10-18T22:46:26.954Z,2.37
2022-10-18T22:48:54.905Z,2.87
2022-10-18T22:51:22.733Z,2.30
2022-10-18T22:53:50.551Z,2.83
2022-10-18T22:56:20.303Z,3.10
2022-10-18T22:58:50.112Z,2.10
2022-10-18T23:01:19.960Z,3.07
2022-10-18T23:03:47.757Z,2.63
2022-10-18T23:06:21.917Z,2.30
2022-10-18T23:08:50.214Z,2.37
2022-10-18T23:11:18.102Z,2.47
2022-10-18T23:13:46.205Z,2.50
2022-10-18T23:16:15.821Z,2.63
2022-10-18T23:18:43.646Z,2.17
2022-10-18T23:21:13.210Z,2.83
2022-10-18T23:23:42.863Z,2.50
2022-10-18T23:26:12.839Z,2.23
2022-10-18T23:28:44.864Z,2.47
2022-10-18T23:31:17.919Z,2.40
2022-10-18T23:33:46.081Z,2.30
2022-10-18T23:36:14.541Z,2.90
2022-10-18T23:38:42.431Z,2.30
2022-10-18T23:41:12.428Z,2.23
2022-10-18T23:43:40.415Z,2.30
2022-10-18T23:46:08.843Z,2.30
2022-10-18T23:48:38.125Z,2.20
2022-10-18T23:51:06.624Z,1.80
2022-10-18T23:53:34.848Z,2.17
2022-10-18T23:56:05.146Z,2.70
2022-10-18T23:58:34.157Z,2.10
